Iva, SC (29655)

2:52 PM EDT on July 28, 2015 (GMT -0400)
KSCANDER7 | | Change Station
CLOSE
Current Station
Personal Weather Station
Location: Lee Shoals, SC
Elevation: 682 ft
Nearby Weather Stations

Elev 682 ft 34.34 °N, 82.56 °W | Updated 39 seconds ago

Clear
Clear
97.7 °F
Feels Like 106 °F
N
3.1
Wind Variable Wind from SW
Gusts 7.6 mph

Today
High -- | Low -- °F
--% Chance of Precip.
Yesterday
High -- | Low -- °F
Precip. -- in
6:38 AM 8:35 PM
Waxing Gibbous, 91% visible
Pressure 29.96 in
Visibility 10.0 miles
Clouds Few 4000 ft
Heat Index 106 °F
Dew Point 72 °F
Humidity 43%
Rainfall 0.00 in
Snow Depth Not available.
UV 11 out of 12
Pollen 3.50 out of 12
Air Quality Not available.
Flu Activity Not available.
METAR KAND 281756Z AUTO 19008KT 10SM FEW040 33/23 A2999 RMK AO2 LTG DSNT N AND NW SLP143 T03330228 10339 20244 58014

More Conditions Fewer Conditions

Pressure 29.96 in
Visibility 10.0 miles
Clouds Few 4000 ft
Heat Index 106 °F
Dew Point 72 °F
Humidity 43%
Rainfall 0.00 in
Snow Depth Not available.
UV 11 out of 12
Pollen 3.50 out of 12
Air Quality Not available.
Flu Activity Not available.
METAR KAND 281756Z AUTO 19008KT 10SM FEW040 33/23 A2999 RMK AO2 LTG DSNT N AND NW SLP143 T03330228 10339 20244 58014

More Conditions Fewer Conditions

10-Day Weather Forecast

×

Almanac

Astronomy

Jul. 28, 2015 Rise Set
Actual Time
Civil Twilight
Nautical Twilight
Astronomical Twilight
Moon
Length of Visible Light
Length of Day
Tomorrow will be .
, % of the Moon is Illuminated

Today's Extremes

State Highs State Lows

Community

WunderPhotos

Upload Photos

1,841,908 photos uploaded!

WunderBlogs® & News

Nearby

Air Quality

  Air Quality AQ Index Pollutant
Not available.

Snow Depth

Station Depth Elevation

Earthquake Activity

City Distance Mag. Time & Date
Minimum magnitude displayed is 2.5.

Coastal Water Temperatures

Place Temperature

Stations

Nearby Weather Stations

Station Location Temp. Windchill Dew Point Humidity Wind Precip. Elev Updated Type